sensor_id;sensor_type;location;lat;lon;timestamp;pressure;altitude;pressure_sealevel;temperature;humidity
49947;BME280;35839;48.662;13.300;2023-08-07T00:02:20;96695.78;;;27.28;38.02
49947;BME280;35839;48.662;13.300;2023-08-07T00:04:46;96701.50;;;26.70;38.61
49947;BME280;35839;48.662;13.300;2023-08-07T00:07:11;96707.53;;;28.07;36.39
49947;BME280;35839;48.662;13.300;2023-08-07T00:09:36;96708.19;;;26.21;39.35
49947;BME280;35839;48.662;13.300;2023-08-07T00:12:02;96705.78;;;26.91;38.14
49947;BME280;35839;48.662;13.300;2023-08-07T00:14:28;96699.06;;;26.07;40.17
49947;BME280;35839;48.662;13.300;2023-08-07T00:16:53;96702.41;;;27.46;37.11
49947;BME280;35839;48.662;13.300;2023-08-07T00:19:19;96699.91;;;26.64;38.29
49947;BME280;35839;48.662;13.300;2023-08-07T00:21:44;96693.13;;;27.07;38.02
49947;BME280;35839;48.662;13.300;2023-08-07T00:24:09;96699.28;;;25.90;39.49
49947;BME280;35839;48.662;13.300;2023-08-07T00:26:34;96698.03;;;26.64;38.17
49947;BME280;35839;48.662;13.300;2023-08-07T00:29:00;96703.06;;;26.15;39.28
49947;BME280;35839;48.662;13.300;2023-08-07T00:31:25;96700.22;;;24.63;41.56
49947;BME280;35839;48.662;13.300;2023-08-07T00:33:50;96706.41;;;24.36;42.36
49947;BME280;35839;48.662;13.300;2023-08-07T00:36:19;96702.94;;;25.69;40.62
49947;BME280;35839;48.662;13.300;2023-08-07T00:38:44;96695.84;;;26.36;38.38
49947;BME280;35839;48.662;13.300;2023-08-07T00:41:09;96697.03;;;25.09;41.37
49947;BME280;35839;48.662;13.300;2023-08-07T00:43:35;96702.84;;;26.88;38.25
49947;BME280;35839;48.662;13.300;2023-08-07T00:46:01;96698.28;;;26.32;38.84
49947;BME280;35839;48.662;13.300;2023-08-07T00:48:26;96703.63;;;26.99;38.08
49947;BME280;35839;48.662;13.300;2023-08-07T00:50:52;96703.22;;;27.51;36.70
49947;BME280;35839;48.662;13.300;2023-08-07T00:53:19;96712.56;;;24.64;41.72
49947;BME280;35839;48.662;13.300;2023-08-07T00:55:44;96698.75;;;27.16;37.52
49947;BME280;35839;48.662;13.300;2023-08-07T00:58:11;96702.72;;;28.38;35.34
49947;BME280;35839;48.662;13.300;2023-08-07T01:00:37;96706.00;;;26.08;39.41
49947;BME280;35839;48.662;13.300;2023-08-07T01:03:05;96704.97;;;26.35;38.62
49947;BME280;35839;48.662;13.300;2023-08-07T01:05:31;96708.06;;;27.49;36.55
49947;BME280;35839;48.662;13.300;2023-08-07T01:07:56;96706.03;;;26.18;39.00
49947;BME280;35839;48.662;13.300;2023-08-07T01:13:23;96703.72;;;25.64;39.99
49947;BME280;35839;48.662;13.300;2023-08-07T01:15:52;96700.16;;;26.37;39.40
49947;BME280;35839;48.662;13.300;2023-08-07T01:18:21;96698.53;;;27.78;36.33
49947;BME280;35839;48.662;13.300;2023-08-07T01:20:47;96697.81;;;27.57;36.09
49947;BME280;35839;48.662;13.300;2023-08-07T01:23:12;96707.09;;;26.07;40.22
49947;BME280;35839;48.662;13.300;2023-08-07T01:25:37;96703.66;;;26.88;38.63
49947;BME280;35839;48.662;13.300;2023-08-07T01:28:15;96704.50;;;25.59;40.88
49947;BME280;35839;48.662;13.300;2023-08-07T01:30:47;96696.75;;;27.52;37.24
49947;BME280;35839;48.662;13.300;2023-08-07T01:33:24;96694.22;;;27.77;36.70
49947;BME280;35839;48.662;13.300;2023-08-07T01:35:55;96687.94;;;27.97;36.02
49947;BME280;35839;48.662;13.300;2023-08-07T01:38:24;96691.75;;;27.30;36.92
49947;BME280;35839;48.662;13.300;2023-08-07T01:40:51;96691.50;;;27.17;37.26
49947;BME280;35839;48.662;13.300;2023-08-07T01:43:17;96688.97;;;27.46;36.20
49947;BME280;35839;48.662;13.300;2023-08-07T01:45:44;96694.44;;;27.20;36.69
49947;BME280;35839;48.662;13.300;2023-08-07T01:48:10;96704.97;;;26.14;38.78
49947;BME280;35839;48.662;13.300;2023-08-07T01:50:39;96691.81;;;26.84;38.38
49947;BME280;35839;48.662;13.300;2023-08-07T01:53:05;96683.16;;;27.23;36.85
49947;BME280;35839;48.662;13.300;2023-08-07T01:55:30;96691.41;;;24.35;43.14
49947;BME280;35839;48.662;13.300;2023-08-07T01:57:56;96692.16;;;25.00;41.76
49947;BME280;35839;48.662;13.300;2023-08-07T02:00:21;96674.63;;;26.29;39.00
49947;BME280;35839;48.662;13.300;2023-08-07T02:02:47;96671.16;;;26.13;38.96
49947;BME280;35839;48.662;13.300;2023-08-07T02:05:13;96691.78;;;26.02;39.42
49947;BME280;35839;48.662;13.300;2023-08-07T02:07:38;96690.88;;;24.66;41.68
49947;BME280;35839;48.662;13.300;2023-08-07T02:10:04;96680.91;;;27.46;37.00
49947;BME280;35839;48.662;13.300;2023-08-07T02:12:29;96682.22;;;28.08;35.80
49947;BME280;35839;48.662;13.300;2023-08-07T02:14:58;96678.91;;;25.94;39.47
49947;BME280;35839;48.662;13.300;2023-08-07T02:17:24;96681.94;;;25.45;40.51
49947;BME280;35839;48.662;13.300;2023-08-07T02:19:49;96688.34;;;26.63;38.12
49947;BME280;35839;48.662;13.300;2023-08-07T02:22:15;96684.72;;;25.65;40.14
49947;BME280;35839;48.662;13.300;2023-08-07T02:24:40;96692.31;;;27.12;37.93
49947;BME280;35839;48.662;13.300;2023-08-07T02:27:05;96693.69;;;26.02;40.34
49947;BME280;35839;48.662;13.300;2023-08-07T02:29:31;96683.66;;;25.67;40.79
49947;BME280;35839;48.662;13.300;2023-08-07T02:31:59;96679.94;;;27.21;37.89
49947;BME280;35839;48.662;13.300;2023-08-07T02:34:24;96689.06;;;25.87;39.33
49947;BME280;35839;48.662;13.300;2023-08-07T02:36:49;96682.06;;;27.19;37.31
49947;BME280;35839;48.662;13.300;2023-08-07T02:39:15;96685.94;;;26.67;37.58
49947;BME280;35839;48.662;13.300;2023-08-07T02:41:40;96678.66;;;27.68;36.50
49947;BME280;35839;48.662;13.300;2023-08-07T02:44:05;96674.63;;;26.90;38.00
49947;BME280;35839;48.662;13.300;2023-08-07T02:46:31;96682.13;;;26.99;37.52
49947;BME280;35839;48.662;13.300;2023-08-07T02:48:56;96675.19;;;26.77;38.54
49947;BME280;35839;48.662;13.300;2023-08-07T02:51:21;96691.69;;;25.72;39.41
49947;BME280;35839;48.662;13.300;2023-08-07T02:53:46;96676.41;;;25.62;40.32
49947;BME280;35839;48.662;13.300;2023-08-07T02:56:12;96692.50;;;24.67;42.15
49947;BME280;35839;48.662;13.300;2023-08-07T02:58:37;96683.22;;;26.00;39.73
49947;BME280;35839;48.662;13.300;2023-08-07T03:01:03;96696.06;;;25.93;39.42
49947;BME280;35839;48.662;13.300;2023-08-07T03:03:29;96681.16;;;25.44;40.12
49947;BME280;35839;48.662;13.300;2023-08-07T03:05:55;96683.44;;;27.17;36.78
49947;BME280;35839;48.662;13.300;2023-08-07T03:08:20;96684.00;;;25.96;39.59
49947;BME280;35839;48.662;13.300;2023-08-07T03:10:55;96686.34;;;25.14;41.56
49947;BME280;35839;48.662;13.300;2023-08-07T03:13:22;96686.44;;;25.97;39.28
49947;BME280;35839;48.662;13.300;2023-08-07T03:15:47;96680.00;;;26.19;38.82
49947;BME280;35839;48.662;13.300;2023-08-07T03:18:15;96682.16;;;26.42;39.41
49947;BME280;35839;48.662;13.300;2023-08-07T03:20:40;96687.50;;;26.01;39.28
49947;BME280;35839;48.662;13.300;2023-08-07T03:23:05;96686.91;;;24.09;43.41
49947;BME280;35839;48.662;13.300;2023-08-07T03:25:30;96684.84;;;26.22;38.93
49947;BME280;35839;48.662;13.300;2023-08-07T03:27:56;96684.31;;;26.66;38.67
49947;BME280;35839;48.662;13.300;2023-08-07T03:30:21;96686.44;;;26.84;38.00
49947;BME280;35839;48.662;13.300;2023-08-07T03:32:46;96688.88;;;24.88;41.14
49947;BME280;35839;48.662;13.300;2023-08-07T03:35:12;96696.38;;;26.02;39.00
49947;BME280;35839;48.662;13.300;2023-08-07T03:37:37;96684.44;;;25.09;41.22
49947;BME280;35839;48.662;13.300;2023-08-07T03:40:03;96690.03;;;25.50;40.84
49947;BME280;35839;48.662;13.300;2023-08-07T03:42:28;96695.84;;;24.89;41.33
49947;BME280;35839;48.662;13.300;2023-08-07T03:44:54;96690.13;;;25.86;39.56
49947;BME280;35839;48.662;13.300;2023-08-07T03:47:19;96693.78;;;25.54;40.97
49947;BME280;35839;48.662;13.300;2023-08-07T03:49:44;96702.97;;;24.73;42.44
49947;BME280;35839;48.662;13.300;2023-08-07T03:52:10;96695.13;;;25.04;41.62
49947;BME280;35839;48.662;13.300;2023-08-07T03:54:35;96704.00;;;25.57;40.20
49947;BME280;35839;48.662;13.300;2023-08-07T03:57:00;96704.44;;;25.39;40.79
49947;BME280;35839;48.662;13.300;2023-08-07T03:59:26;96703.63;;;26.27;39.75
49947;BME280;35839;48.662;13.300;2023-08-07T04:01:51;96721.25;;;25.24;40.92
49947;BME280;35839;48.662;13.300;2023-08-07T04:04:16;96717.59;;;24.98;41.98
49947;BME280;35839;48.662;13.300;2023-08-07T04:06:42;96728.81;;;25.37;40.79
49947;BME280;35839;48.662;13.300;2023-08-07T04:09:09;96709.91;;;25.64;39.73
49947;BME280;35839;48.662;13.300;2023-08-07T04:11:35;96715.22;;;25.54;40.49
49947;BME280;35839;48.662;13.300;2023-08-07T04:14:00;96713.41;;;24.75;42.03
49947;BME280;35839;48.662;13.300;2023-08-07T04:16:26;96703.06;;;26.20;39.53
49947;BME280;35839;48.662;13.300;2023-08-07T04:18:51;96722.72;;;26.46;38.97
49947;BME280;35839;48.662;13.300;2023-08-07T04:21:16;96734.22;;;23.81;44.53
49947;BME280;35839;48.662;13.300;2023-08-07T04:23:42;96730.75;;;26.31;39.02
49947;BME280;35839;48.662;13.300;2023-08-07T04:26:07;96742.44;;;25.31;40.70
49947;BME280;35839;48.662;13.300;2023-08-07T04:28:32;96729.19;;;26.60;38.25
49947;BME280;35839;48.662;13.300;2023-08-07T04:30:57;96730.72;;;24.35;42.92
49947;BME280;35839;48.662;13.300;2023-08-07T04:33:23;96723.34;;;25.85;40.54
49947;BME280;35839;48.662;13.300;2023-08-07T04:35:48;96725.13;;;24.36;43.33
49947;BME280;35839;48.662;13.300;2023-08-07T04:38:15;96726.88;;;24.48;43.57
49947;BME280;35839;48.662;13.300;2023-08-07T04:40:47;96728.28;;;25.35;41.12
49947;BME280;35839;48.662;13.300;2023-08-07T04:43:14;96726.34;;;25.26;41.35
49947;BME280;35839;48.662;13.300;2023-08-07T04:45:40;96724.06;;;25.07;41.68
49947;BME280;35839;48.662;13.300;2023-08-07T04:48:07;96731.38;;;23.93;43.89
49947;BME280;35839;48.662;13.300;2023-08-07T04:50:33;96733.63;;;24.93;41.82
49947;BME280;35839;48.662;13.300;2023-08-07T04:52:58;96722.44;;;24.64;42.65
49947;BME280;35839;48.662;13.300;2023-08-07T04:55:25;96699.28;;;24.85;41.69
49947;BME280;35839;48.662;13.300;2023-08-07T04:57:51;96731.94;;;23.29;45.91
49947;BME280;35839;48.662;13.300;2023-08-07T05:00:19;96749.97;;;24.59;42.48
49947;BME280;35839;48.662;13.300;2023-08-07T05:02:45;96740.59;;;24.94;41.83
49947;BME280;35839;48.662;13.300;2023-08-07T05:05:10;96761.78;;;25.00;41.04
49947;BME280;35839;48.662;13.300;2023-08-07T05:07:35;96761.16;;;24.83;41.60
49947;BME280;35839;48.662;13.300;2023-08-07T05:10:02;96764.63;;;24.51;42.21
49947;BME280;35839;48.662;13.300;2023-08-07T05:12:28;96773.72;;;26.46;38.36
49947;BME280;35839;48.662;13.300;2023-08-07T05:14:53;96765.22;;;25.81;40.13
49947;BME280;35839;48.662;13.300;2023-08-07T05:17:18;96770.44;;;25.13;41.59
49947;BME280;35839;48.662;13.300;2023-08-07T05:19:44;96776.13;;;24.84;40.85
49947;BME280;35839;48.662;13.300;2023-08-07T05:22:09;96774.69;;;25.46;40.57
49947;BME280;35839;48.662;13.300;2023-08-07T05:24:34;96771.72;;;25.95;39.07
49947;BME280;35839;48.662;13.300;2023-08-07T05:27:07;96798.50;;;23.13;45.52
49947;BME280;35839;48.662;13.300;2023-08-07T05:29:33;96808.34;;;24.62;41.99
49947;BME280;35839;48.662;13.300;2023-08-07T05:31:59;96790.06;;;24.27;42.97
49947;BME280;35839;48.662;13.300;2023-08-07T05:34:24;96792.84;;;25.34;40.21
49947;BME280;35839;48.662;13.300;2023-08-07T05:36:49;96800.41;;;25.05;41.15
49947;BME280;35839;48.662;13.300;2023-08-07T05:39:15;96796.91;;;25.94;38.99
49947;BME280;35839;48.662;13.300;2023-08-07T05:41:40;96803.03;;;25.32;41.14
49947;BME280;35839;48.662;13.300;2023-08-07T05:44:05;96787.00;;;24.72;41.78
49947;BME280;35839;48.662;13.300;2023-08-07T05:46:30;96810.28;;;23.34;45.84
49947;BME280;35839;48.662;13.300;2023-08-07T05:48:56;96807.09;;;23.98;43.59
49947;BME280;35839;48.662;13.300;2023-08-07T05:51:21;96811.34;;;22.83;44.59
49947;BME280;35839;48.662;13.300;2023-08-07T05:53:46;96813.72;;;24.62;42.37
49947;BME280;35839;48.662;13.300;2023-08-07T05:56:14;96819.41;;;24.22;43.01
49947;BME280;35839;48.662;13.300;2023-08-07T05:58:39;96825.66;;;25.14;41.91
49947;BME280;35839;48.662;13.300;2023-08-07T06:01:05;96834.09;;;24.68;42.24
49947;BME280;35839;48.662;13.300;2023-08-07T06:03:30;96839.19;;;25.29;41.58
49947;BME280;35839;48.662;13.300;2023-08-07T06:05:56;96837.78;;;25.21;41.39
49947;BME280;35839;48.662;13.300;2023-08-07T06:08:22;96841.44;;;24.07;44.48
49947;BME280;35839;48.662;13.300;2023-08-07T06:10:47;96850.25;;;25.43;41.10
49947;BME280;35839;48.662;13.300;2023-08-07T06:13:12;96853.00;;;23.51;44.18
49947;BME280;35839;48.662;13.300;2023-08-07T06:15:38;96856.72;;;25.47;41.07
49947;BME280;35839;48.662;13.300;2023-08-07T06:18:06;96859.25;;;25.27;41.64
49947;BME280;35839;48.662;13.300;2023-08-07T06:20:31;96867.53;;;25.62;39.86
49947;BME280;35839;48.662;13.300;2023-08-07T06:22:57;96864.28;;;25.55;40.94
49947;BME280;35839;48.662;13.300;2023-08-07T06:25:22;96877.16;;;26.01;40.30
49947;BME280;35839;48.662;13.300;2023-08-07T06:27:47;96872.88;;;25.57;40.77
49947;BME280;35839;48.662;13.300;2023-08-07T06:30:12;96887.78;;;24.84;41.43
49947;BME280;35839;48.662;13.300;2023-08-07T06:32:39;96877.38;;;25.94;39.16
49947;BME280;35839;48.662;13.300;2023-08-07T06:35:05;96886.00;;;26.85;37.85
49947;BME280;35839;48.662;13.300;2023-08-07T06:37:30;96896.22;;;25.25;41.29
49947;BME280;35839;48.662;13.300;2023-08-07T06:39:56;96894.72;;;24.79;42.49
49947;BME280;35839;48.662;13.300;2023-08-07T06:42:21;96900.19;;;25.54;40.68
49947;BME280;35839;48.662;13.300;2023-08-07T06:44:47;96898.72;;;24.33;42.96
49947;BME280;35839;48.662;13.300;2023-08-07T06:47:12;96899.25;;;25.06;41.79
49947;BME280;35839;48.662;13.300;2023-08-07T06:49:37;96898.13;;;25.02;41.87
49947;BME280;35839;48.662;13.300;2023-08-07T06:52:03;96896.81;;;26.22;39.11
49947;BME280;35839;48.662;13.300;2023-08-07T06:54:28;96910.38;;;25.20;41.61
49947;BME280;35839;48.662;13.300;2023-08-07T06:56:54;96917.69;;;23.87;44.20
49947;BME280;35839;48.662;13.300;2023-08-07T06:59:19;96915.91;;;25.13;41.29
49947;BME280;35839;48.662;13.300;2023-08-07T07:01:44;96919.31;;;26.11;39.57
49947;BME280;35839;48.662;13.300;2023-08-07T07:04:10;96922.75;;;25.63;40.19
49947;BME280;35839;48.662;13.300;2023-08-07T07:06:37;96923.94;;;25.40;41.01
49947;BME280;35839;48.662;13.300;2023-08-07T07:09:02;96926.41;;;26.32;38.77
49947;BME280;35839;48.662;13.300;2023-08-07T07:11:27;96927.88;;;25.65;40.01
49947;BME280;35839;48.662;13.300;2023-08-07T07:13:53;96938.69;;;25.43;41.60
49947;BME280;35839;48.662;13.300;2023-08-07T07:16:18;96937.41;;;24.64;41.61
49947;BME280;35839;48.662;13.300;2023-08-07T07:18:46;96940.50;;;25.70;39.92
49947;BME280;35839;48.662;13.300;2023-08-07T07:21:11;96948.72;;;24.49;42.45
49947;BME280;35839;48.662;13.300;2023-08-07T07:23:36;96955.47;;;24.13;43.19
49947;BME280;35839;48.662;13.300;2023-08-07T07:26:02;96959.88;;;23.51;45.58
49947;BME280;35839;48.662;13.300;2023-08-07T07:28:27;96955.44;;;24.52;43.00
49947;BME280;35839;48.662;13.300;2023-08-07T07:30:53;96959.59;;;25.14;41.26
49947;BME280;35839;48.662;13.300;2023-08-07T07:33:18;96962.22;;;25.36;41.42
49947;BME280;35839;48.662;13.300;2023-08-07T07:35:43;96967.59;;;24.21;43.63
49947;BME280;35839;48.662;13.300;2023-08-07T07:38:09;96973.81;;;24.65;43.07
49947;BME280;35839;48.662;13.300;2023-08-07T07:40:35;96983.22;;;26.19;38.65
49947;BME280;35839;48.662;13.300;2023-08-07T07:43:00;96985.72;;;25.29;41.18
49947;BME280;35839;48.662;13.300;2023-08-07T07:45:26;96987.03;;;25.53;40.37
49947;BME280;35839;48.662;13.300;2023-08-07T07:47:51;96985.66;;;25.83;40.12
49947;BME280;35839;48.662;13.300;2023-08-07T07:50:16;96995.59;;;24.52;43.29
49947;BME280;35839;48.662;13.300;2023-08-07T07:52:41;96992.28;;;25.43;40.74
49947;BME280;35839;48.662;13.300;2023-08-07T07:55:08;96989.72;;;25.26;40.36
49947;BME280;35839;48.662;13.300;2023-08-07T07:57:34;96995.78;;;25.16;41.21
49947;BME280;35839;48.662;13.300;2023-08-07T08:00:00;97005.56;;;25.06;40.88
49947;BME280;35839;48.662;13.300;2023-08-07T08:02:26;97005.13;;;24.65;42.63
49947;BME280;35839;48.662;13.300;2023-08-07T08:04:51;97005.03;;;25.90;40.05
49947;BME280;35839;48.662;13.300;2023-08-07T08:07:17;97020.56;;;24.57;41.79
49947;BME280;35839;48.662;13.300;2023-08-07T08:09:43;97010.72;;;25.12;40.66
49947;BME280;35839;48.662;13.300;2023-08-07T08:12:08;97032.34;;;25.87;39.18
49947;BME280;35839;48.662;13.300;2023-08-07T08:14:34;97025.31;;;24.16;43.58
49947;BME280;35839;48.662;13.300;2023-08-07T08:16:59;97017.31;;;25.54;39.90
49947;BME280;35839;48.662;13.300;2023-08-07T08:19:24;97026.53;;;24.65;42.00
49947;BME280;35839;48.662;13.300;2023-08-07T08:21:49;97030.66;;;25.76;39.92
49947;BME280;35839;48.662;13.300;2023-08-07T08:24:15;97030.72;;;24.22;43.70
49947;BME280;35839;48.662;13.300;2023-08-07T08:26:40;97036.63;;;24.57;42.72
49947;BME280;35839;48.662;13.300;2023-08-07T08:29:06;97036.47;;;25.68;40.25
49947;BME280;35839;48.662;13.300;2023-08-07T08:31:33;97033.75;;;25.08;41.47
49947;BME280;35839;48.662;13.300;2023-08-07T08:33:58;97047.34;;;25.29;41.01
49947;BME280;35839;48.662;13.300;2023-08-07T08:36:23;97046.66;;;26.40;39.46
49947;BME280;35839;48.662;13.300;2023-08-07T08:38:48;97042.97;;;24.95;41.83
49947;BME280;35839;48.662;13.300;2023-08-07T08:41:14;97050.22;;;25.44;40.63
49947;BME280;35839;48.662;13.300;2023-08-07T08:43:40;97050.19;;;25.71;39.82
49947;BME280;35839;48.662;13.300;2023-08-07T08:46:06;97050.69;;;25.68;40.09
49947;BME280;35839;48.662;13.300;2023-08-07T08:48:35;97050.41;;;25.64;40.19
49947;BME280;35839;48.662;13.300;2023-08-07T08:51:01;97064.31;;;24.68;42.26
49947;BME280;35839;48.662;13.300;2023-08-07T08:53:27;97063.16;;;26.17;39.16
49947;BME280;35839;48.662;13.300;2023-08-07T08:55:52;97068.34;;;25.91;39.53
49947;BME280;35839;48.662;13.300;2023-08-07T08:58:20;97065.38;;;25.88;40.09
49947;BME280;35839;48.662;13.300;2023-08-07T09:00:45;97069.84;;;25.82;40.42
49947;BME280;35839;48.662;13.300;2023-08-07T09:03:11;97071.38;;;25.73;40.34
49947;BME280;35839;48.662;13.300;2023-08-07T09:05:37;97094.91;;;23.42;45.02
49947;BME280;35839;48.662;13.300;2023-08-07T09:08:03;97082.69;;;23.75;44.66
49947;BME280;35839;48.662;13.300;2023-08-07T09:10:29;97089.03;;;25.96;40.50
49947;BME280;35839;48.662;13.300;2023-08-07T09:13:03;97089.75;;;25.59;40.54
49947;BME280;35839;48.662;13.300;2023-08-07T09:15:32;97105.59;;;24.72;42.93
49947;BME280;35839;48.662;13.300;2023-08-07T09:17:58;97078.72;;;25.28;41.24
49947;BME280;35839;48.662;13.300;2023-08-07T09:20:25;97082.25;;;24.68;43.39
49947;BME280;35839;48.662;13.300;2023-08-07T09:22:50;97083.81;;;25.08;41.50
49947;BME280;35839;48.662;13.300;2023-08-07T09:25:29;97087.72;;;25.71;40.89
49947;BME280;35839;48.662;13.300;2023-08-07T09:27:55;97081.97;;;26.22;40.18
49947;BME280;35839;48.662;13.300;2023-08-07T09:30:26;97084.81;;;26.47;39.52
49947;BME280;35839;48.662;13.300;2023-08-07T09:32:51;97101.25;;;24.88;42.17
49947;BME280;35839;48.662;13.300;2023-08-07T09:35:20;97103.13;;;23.81;45.02
49947;BME280;35839;48.662;13.300;2023-08-07T09:37:46;97094.97;;;26.40;40.11
49947;BME280;35839;48.662;13.300;2023-08-07T09:40:11;97104.97;;;24.65;42.87
49947;BME280;35839;48.662;13.300;2023-08-07T09:42:37;97100.06;;;25.01;42.05
49947;BME280;35839;48.662;13.300;2023-08-07T09:45:18;97109.72;;;25.46;41.70
49947;BME280;35839;48.662;13.300;2023-08-07T09:47:44;97113.78;;;25.27;42.37
49947;BME280;35839;48.662;13.300;2023-08-07T09:50:16;97116.47;;;25.05;43.13
49947;BME280;35839;48.662;13.300;2023-08-07T09:52:46;97120.31;;;25.36;42.52
49947;BME280;35839;48.662;13.300;2023-08-07T09:55:12;97125.78;;;25.95;40.95
49947;BME280;35839;48.662;13.300;2023-08-07T09:57:38;97124.25;;;26.04;40.92
49947;BME280;35839;48.662;13.300;2023-08-07T10:00:08;97133.34;;;23.98;44.16
49947;BME280;35839;48.662;13.300;2023-08-07T10:02:37;97128.22;;;24.81;43.31
49947;BME280;35839;48.662;13.300;2023-08-07T10:05:02;97129.81;;;25.71;42.02
49947;BME280;35839;48.662;13.300;2023-08-07T10:07:30;97126.81;;;26.26;40.24
49947;BME280;35839;48.662;13.300;2023-08-07T10:09:56;97132.88;;;26.44;40.37
49947;BME280;35839;48.662;13.300;2023-08-07T10:12:23;97131.16;;;26.65;40.16
49947;BME280;35839;48.662;13.300;2023-08-07T10:14:48;97137.03;;;25.21;42.71
49947;BME280;35839;48.662;13.300;2023-08-07T10:17:14;97133.00;;;26.27;40.52
49947;BME280;35839;48.662;13.300;2023-08-07T10:19:40;97137.13;;;26.77;39.95
49947;BME280;35839;48.662;13.300;2023-08-07T10:22:05;97143.06;;;26.79;39.54
49947;BME280;35839;48.662;13.300;2023-08-07T10:24:33;97138.50;;;26.85;38.97
49947;BME280;35839;48.662;13.300;2023-08-07T10:27:00;97132.28;;;26.37;40.12
49947;BME280;35839;48.662;13.300;2023-08-07T10:29:26;97147.34;;;25.12;43.51
49947;BME280;35839;48.662;13.300;2023-08-07T10:31:55;97150.53;;;26.02;41.33
49947;BME280;35839;48.662;13.300;2023-08-07T10:34:22;97138.28;;;26.91;40.25
49947;BME280;35839;48.662;13.300;2023-08-07T10:36:47;97136.88;;;25.82;41.56
49947;BME280;35839;48.662;13.300;2023-08-07T10:39:15;97157.59;;;24.43;46.34
49947;BME280;35839;48.662;13.300;2023-08-07T10:41:48;97160.13;;;25.05;43.19
49947;BME280;35839;48.662;13.300;2023-08-07T10:46:52;97164.19;;;25.52;42.75
49947;BME280;35839;48.662;13.300;2023-08-07T10:49:38;97155.38;;;25.12;43.42
49947;BME280;35839;48.662;13.300;2023-08-07T10:52:13;97157.13;;;26.22;41.06
49947;BME280;35839;48.662;13.300;2023-08-07T10:54:47;97158.34;;;26.41;40.18
49947;BME280;35839;48.662;13.300;2023-08-07T10:57:14;97166.69;;;26.13;41.16
49947;BME280;35839;48.662;13.300;2023-08-07T11:02:29;97162.44;;;26.49;39.80
49947;BME280;35839;48.662;13.300;2023-08-07T11:04:55;97168.69;;;25.95;42.21
49947;BME280;35839;48.662;13.300;2023-08-07T11:07:28;97168.22;;;24.37;44.51
49947;BME280;35839;48.662;13.300;2023-08-07T11:09:54;97165.88;;;25.36;43.42
49947;BME280;35839;48.662;13.300;2023-08-07T11:12:20;97151.72;;;26.91;40.14
49947;BME280;35839;48.662;13.300;2023-08-07T11:14:46;97169.28;;;27.15;39.54
49947;BME280;35839;48.662;13.300;2023-08-07T11:17:12;97172.03;;;26.07;41.46
49947;BME280;35839;48.662;13.300;2023-08-07T11:19:38;97156.06;;;26.98;39.61
49947;BME280;35839;48.662;13.300;2023-08-07T11:22:03;97163.66;;;26.36;40.17
49947;BME280;35839;48.662;13.300;2023-08-07T11:24:29;97161.56;;;27.23;39.64
49947;BME280;35839;48.662;13.300;2023-08-07T11:26:55;97167.63;;;24.86;43.46
49947;BME280;35839;48.662;13.300;2023-08-07T11:29:22;97172.03;;;26.72;40.97
49947;BME280;35839;48.662;13.300;2023-08-07T11:31:49;97162.31;;;27.14;39.66
49947;BME280;35839;48.662;13.300;2023-08-07T11:34:17;97173.06;;;25.30;43.79
49947;BME280;35839;48.662;13.300;2023-08-07T11:36:44;97164.03;;;26.87;40.04
49947;BME280;35839;48.662;13.300;2023-08-07T11:39:11;97164.94;;;25.96;42.46
49947;BME280;35839;48.662;13.300;2023-08-07T11:41:36;97162.28;;;26.28;41.68
49947;BME280;35839;48.662;13.300;2023-08-07T11:44:02;97157.69;;;27.72;38.86
49947;BME280;35839;48.662;13.300;2023-08-07T11:46:28;97169.78;;;26.59;40.45
49947;BME280;35839;48.662;13.300;2023-08-07T11:48:53;97157.03;;;27.34;39.17
49947;BME280;35839;48.662;13.300;2023-08-07T11:51:20;97176.28;;;26.68;39.95
49947;BME280;35839;48.662;13.300;2023-08-07T11:53:46;97171.66;;;26.58;40.32
49947;BME280;35839;48.662;13.300;2023-08-07T11:56:13;97175.53;;;27.93;38.12
49947;BME280;35839;48.662;13.300;2023-08-07T11:58:44;97168.28;;;28.14;37.58
49947;BME280;35839;48.662;13.300;2023-08-07T12:01:18;97173.47;;;27.48;38.17
49947;BME280;35839;48.662;13.300;2023-08-07T12:03:58;97187.00;;;27.10;39.79
49947;BME280;35839;48.662;13.300;2023-08-07T12:06:36;97194.63;;;25.62;43.00
49947;BME280;35839;48.662;13.300;2023-08-07T12:09:05;97188.09;;;26.67;40.16
49947;BME280;35839;48.662;13.300;2023-08-07T12:11:31;97190.78;;;26.67;40.54
49947;BME280;35839;48.662;13.300;2023-08-07T12:13:59;97190.69;;;26.57;40.64
49947;BME280;35839;48.662;13.300;2023-08-07T12:16:26;97201.78;;;26.33;39.77
49947;BME280;35839;48.662;13.300;2023-08-07T12:18:52;97198.38;;;26.80;39.54
49947;BME280;35839;48.662;13.300;2023-08-07T12:21:21;97206.50;;;25.94;41.76
49947;BME280;35839;48.662;13.300;2023-08-07T12:23:50;97200.34;;;26.90;40.17
49947;BME280;35839;48.662;13.300;2023-08-07T12:26:16;97201.00;;;26.38;41.06
49947;BME280;35839;48.662;13.300;2023-08-07T12:28:42;97200.03;;;27.34;39.08
49947;BME280;35839;48.662;13.300;2023-08-07T12:31:08;97196.28;;;28.29;36.78
49947;BME280;35839;48.662;13.300;2023-08-07T12:33:33;97197.13;;;27.41;38.69
49947;BME280;35839;48.662;13.300;2023-08-07T12:35:59;97200.03;;;27.34;40.03
49947;BME280;35839;48.662;13.300;2023-08-07T12:38:25;97201.13;;;28.37;38.13
49947;BME280;35839;48.662;13.300;2023-08-07T12:40:51;97202.19;;;28.31;37.18
49947;BME280;35839;48.662;13.300;2023-08-07T12:43:17;97205.63;;;27.85;38.10
49947;BME280;35839;48.662;13.300;2023-08-07T12:45:42;97211.44;;;26.66;39.64
49947;BME280;35839;48.662;13.300;2023-08-07T12:48:07;97208.66;;;28.35;37.03
49947;BME280;35839;48.662;13.300;2023-08-07T12:50:33;97215.88;;;28.09;38.29
49947;BME280;35839;48.662;13.300;2023-08-07T12:52:59;97200.31;;;27.27;38.11
49947;BME280;35839;48.662;13.300;2023-08-07T12:55:24;97211.41;;;27.04;39.48